Watertown, South Dakota
Current Conditions -  °F | °C
As of 6:53 PM on Monday 20 Oct 2014 (Local Time) from KATY Reporting Station
Clear Clear  
Wind Chill: 59°   Ceiling: Unl
Heat Index: 59°   Visibility: 10mi
Dew Point: 36°   Wind: 0mph
Humidity: 42%   Direction: NA
Pressure: 30.03"   Gusts: NA
Location:  44.9°N, 97.1°W
Report Text: KATY 202353Z AUTO 00000KT 10SM CLR 15/02 A3003 RMK AO2 SLP178 T01500022 10211 20150 56002
Loading
Personal Weather Stations






























Interactive Weather Map
Tropical Storm Tracking
New forecast layout! Learn more

10-Day Weather Forecast

Advertisements
Track Severe Weather on mobile